Time;durP1;ratioP1;P1;durP2;ratioP2;P2;SDS_P1;SDS_P2;PMS_P1;PMS_P2;Temp;Humidity;BMP_temperature;BMP_pressure;BME280_temperature;BME280_humidity;BME280_pressure;Samples;Min_cycle;Max_cycle;Signal;HPM_P1;HPM_P2
2021/05/07 00:00:04;;;;;;;4.18;1.30;;;0.90;99.90;;;-0.75;98.29;100165.34;4845080;28;20088;-80
2021/05/07 00:02:27;;;;;;;12.60;1.67;;;1.00;99.90;;;-0.68;98.47;100161.81;4842297;28;20089;-81
2021/05/07 00:04:50;;;;;;;13.00;1.63;;;1.20;99.90;;;-0.42;98.21;100158.97;4845018;28;20427;-80
2021/05/07 00:07:13;;;;;;;5.35;1.90;;;1.20;99.90;;;-0.57;98.74;100161.72;4844545;28;20092;-81
2021/05/07 00:09:36;;;;;;;9.20;1.55;;;1.10;99.90;;;-0.65;98.40;100167.81;4844357;28;20096;-82
2021/05/07 00:12:00;;;;;;;8.43;2.15;;;1.10;99.90;;;-0.73;98.34;100163.59;4841927;28;20093;-82
2021/05/07 00:14:23;;;;;;;3.03;1.20;;;1.00;99.90;;;-0.79;98.59;100171.41;4843894;28;20127;-81
2021/05/07 00:16:48;;;;;;;2.95;1.58;;;;;;;-0.87;98.64;100161.97;4846931;28;20091;-79
2021/05/07 00:19:11;;;;;;;4.00;1.48;;;0.80;99.90;;;-0.93;98.36;100162.06;4843112;28;20092;-82
2021/05/07 00:21:35;;;;;;;10.88;1.90;;;0.90;99.90;;;-0.95;98.82;100160.31;4845838;28;20084;-81
2021/05/07 00:23:58;;;;;;;8.93;1.92;;;0.80;99.90;;;-1.04;98.48;100162.13;4839455;28;20528;-79
2021/05/07 00:26:21;;;;;;;4.22;1.30;;;0.70;99.90;;;-1.13;98.32;100162.19;4847304;28;20096;-80
2021/05/07 00:28:44;;;;;;;2.53;1.13;;;0.60;99.90;;;-1.19;98.59;100159.66;4844716;28;20084;-81
2021/05/07 00:31:07;;;;;;;4.97;1.35;;;0.50;99.90;;;-1.29;98.03;100158.88;4844985;28;20091;-81
2021/05/07 00:33:30;;;;;;;3.15;1.35;;;0.50;99.90;;;-1.32;97.97;100160.63;4842101;28;20081;-81
2021/05/07 00:35:53;;;;;;;3.80;1.40;;;0.50;99.90;;;-1.33;98.46;100164.06;4841168;28;20491;-81
2021/05/07 00:38:17;;;;;;;4.63;1.50;;;0.40;99.90;;;-1.40;97.66;100160.69;4843900;28;20523;-81
2021/05/07 00:40:41;;;;;;;1.95;1.20;;;0.40;99.90;;;-1.44;98.01;100156.41;4843670;28;20182;-79
2021/05/07 00:43:04;;;;;;;2.40;1.15;;;0.40;99.90;;;-1.45;98.22;100158.13;4843843;28;21163;-82
2021/05/07 00:45:27;;;;;;;9.23;1.98;;;0.50;99.90;;;-1.20;99.18;100155.38;4842542;28;20162;-80
2021/05/07 00:47:57;;;;;;;4.30;2.13;;;0.70;99.90;;;-1.01;100.00;100150.06;4845104;28;20467;-81
2021/05/07 00:50:20;;;;;;;13.07;1.73;;;0.80;99.90;;;-1.06;100.00;100148.38;4846325;28;20095;-78
2021/05/07 00:52:45;;;;;;;11.30;2.00;;;0.70;99.90;;;-1.14;100.00;100146.72;4844498;28;20084;-82
2021/05/07 00:55:10;;;;;;;5.57;2.05;;;0.60;99.90;;;-1.22;100.00;100154.53;4847053;28;20095;-82
2021/05/07 00:57:37;;;;;;;3.70;1.38;;;0.50;99.90;;;-1.31;100.00;100152.88;4844195;28;20093;-79
2021/05/07 00:59:59;;;;;;;4.07;1.20;;;0.40;99.90;;;-1.45;100.00;100152.97;4844527;28;20145;-81
2021/05/07 01:02:22;;;;;;;6.18;1.42;;;0.30;99.90;;;-1.59;100.00;100153.94;4844702;28;21986;-82
2021/05/07 01:04:47;;;;;;;6.57;1.30;;;0.10;99.90;;;-1.78;99.98;100158.31;4842587;28;20180;-77
2021/05/07 01:07:11;;;;;;;1.08;0.68;;;-0.10;99.90;;;-1.95;99.37;100148.94;4842718;28;20108;-75
2021/05/07 01:09:35;;;;;;;6.20;0.70;;;-0.20;99.90;;;-2.10;99.20;100149.84;4841090;28;20139;-80
2021/05/07 01:11:59;;;;;;;1.80;0.70;;;-0.30;99.90;;;-2.19;98.97;100151.63;4844481;28;20104;-81
2021/05/07 01:14:22;;;;;;;3.85;0.90;;;-0.40;99.90;;;-2.29;99.04;100151.66;4845635;28;20093;-81
2021/05/07 01:16:46;;;;;;;5.35;1.20;;;-0.50;99.90;;;-2.32;98.84;100148.22;4844443;28;20107;-81
2021/05/07 01:19:13;;;;;;;6.68;1.45;;;-0.50;99.90;;;-2.39;99.07;100149.97;4843429;28;20084;-79
2021/05/07 01:21:38;;;;;;;3.38;1.13;;;-0.60;99.90;;;-2.46;97.99;100153.44;4844282;28;20091;-81
2021/05/07 01:24:01;;;;;;;1.88;0.80;;;-0.60;99.90;;;-2.47;98.55;100141.41;4840444;28;20087;-80
2021/05/07 01:26:24;;;;;;;4.82;1.20;;;-0.60;99.90;;;-2.47;97.62;100146.56;4848204;28;20111;-76
2021/05/07 01:28:47;;;;;;;1.30;1.00;;;-0.60;99.90;;;-2.51;97.12;100150.00;4849701;28;20096;-81
2021/05/07 01:31:10;;;;;;;2.72;1.20;;;0.70;99.90;;;-2.54;97.16;100144.88;4849919;28;21023;-81
2021/05/07 01:33:34;;;;;;;4.28;1.33;;;;;;;-2.52;97.02;100136.25;4845897;28;20084;-80
2021/05/07 01:35:57;;;;;;;6.00;2.05;;;-0.60;99.90;;;-2.50;98.26;100139.69;4847088;28;20562;-81
2021/05/07 01:38:22;;;;;;;4.43;1.60;;;-0.50;99.90;;;-2.47;99.37;100142.25;4848988;28;20150;-77
2021/05/07 01:40:47;;;;;;;4.55;1.45;;;-0.60;99.90;;;-2.43;99.64;100137.09;4846637;28;20088;-80
2021/05/07 01:43:10;;;;;;;6.25;2.05;;;-0.50;99.90;;;-2.37;98.89;100143.09;4847220;28;20091;-81
2021/05/07 01:45:36;;;;;;;9.02;1.92;;;-0.50;99.90;;;-2.36;99.38;100149.09;4845632;28;20470;-81
2021/05/07 01:47:59;;;;;;;;;;;-0.50;99.90;;;-2.36;99.89;100151.69;4847097;28;20088;-81
2021/05/07 01:50:25;;;;;;;5.28;1.40;;;-0.60;99.90;;;-2.48;99.53;100150.84;4847182;28;19967;-80
2021/05/07 01:52:48;;;;;;;3.53;1.58;;;-0.70;99.90;;;-2.56;100.00;100162.06;4848928;28;20091;-81
2021/05/07 01:55:16;;;;;;;3.03;1.17;;;-0.80;99.90;;;-2.66;99.08;100168.06;4849701;28;20080;-82
2021/05/07 01:57:40;;;;;;;1.58;0.90;;;-0.80;99.90;;;-2.74;99.80;100165.53;4848801;28;20089;-81
2021/05/07 02:00:07;;;;;;;2.80;1.45;;;-0.90;99.90;;;-2.77;99.73;100166.38;4847482;28;20088;-80
2021/05/07 02:02:30;;;;;;;4.45;1.50;;;-0.90;99.90;;;-2.76;99.07;100165.53;4846271;28;20084;-81
2021/05/07 02:04:53;;;;;;;9.73;1.88;;;-0.80;99.90;;;-2.64;99.52;100168.94;4846351;28;20085;-78
2021/05/07 02:07:16;;;;;;;8.30;1.58;;;-0.70;99.90;;;-2.55;99.71;100166.34;4850715;28;20095;-80
2021/05/07 02:09:39;;;;;;;4.35;1.77;;;-0.70;99.90;;;-2.49;99.26;100177.47;4842482;28;20088;-81
2021/05/07 02:12:03;;;;;;;3.20;1.90;;;-0.60;99.90;;;-2.48;99.43;100171.47;4844255;28;20081;-75
2021/05/07 02:14:26;;;;;;;3.92;1.75;;;-1.70;99.90;;;-2.47;99.99;100170.59;4845206;28;20093;-80
2021/05/07 02:16:49;;;;;;;5.75;2.17;;;-0.60;99.90;;;-2.52;100.00;100167.19;4845573;28;20088;-82
2021/05/07 02:19:11;;;;;;;5.43;2.33;;;-0.60;99.90;;;-2.47;100.00;100174.91;4844966;28;20425;-82
2021/05/07 02:21:34;;;;;;;7.22;2.25;;;-0.60;99.90;;;-2.49;100.00;100172.31;4845414;28;20112;-79
2021/05/07 02:23:59;;;;;;;9.02;2.58;;;-0.60;99.90;;;-2.45;100.00;100165.47;4845639;28;20114;-79
2021/05/07 02:26:22;;;;;;;9.85;2.40;;;-0.60;99.90;;;-2.44;100.00;100167.19;4847114;28;20206;-81
2021/05/07 02:28:48;;;;;;;11.07;1.98;;;-0.50;99.90;;;-2.41;100.00;100167.16;4847817;28;20467;-80
2021/05/07 02:31:11;;;;;;;6.85;2.60;;;-0.50;99.90;;;-2.28;100.00;100163.69;4845424;28;20470;-81
2021/05/07 02:33:38;;;;;;;7.28;2.08;;;-0.40;99.90;;;-2.20;100.00;100170.53;4843622;28;20114;-81
2021/05/07 02:36:00;;;;;;;4.07;1.88;;;-0.30;99.90;;;-2.11;100.00;100165.38;4844409;28;20084;-81
2021/05/07 02:38:26;;;;;;;7.22;2.05;;;-0.30;99.90;;;-2.13;100.00;100164.50;4847364;28;20084;-80
2021/05/07 02:40:49;;;;;;;11.18;2.50;;;-0.30;99.90;;;-2.08;100.00;100165.34;4843986;28;20105;-81
2021/05/07 02:43:12;;;;;;;7.90;2.53;;;-0.10;99.90;;;-1.95;100.00;100164.41;4845915;28;20084;-81
2021/05/07 02:45:35;;;;;;;4.63;2.17;;;-0.10;99.90;;;-1.95;100.00;100159.25;4843614;28;20084;-80
2021/05/07 02:47:58;;;;;;;6.65;2.40;;;-0.10;99.90;;;-1.99;100.00;100160.13;4844752;28;20091;-79
2021/05/07 02:50:21;;;;;;;5.43;2.13;;;-0.20;99.90;;;-2.04;100.00;100164.47;4847707;28;20428;-81
2021/05/07 02:52:44;;;;;;;3.30;2.15;;;-0.30;99.90;;;-2.20;100.00;100147.31;4844702;28;20088;-81
2021/05/07 02:55:10;;;;;;;5.10;2.22;;;-0.40;99.90;;;-2.34;100.00;100160.28;4844434;28;20076;-81
2021/05/07 02:57:33;;;;;;;3.60;1.88;;;-0.60;99.90;;;-2.42;100.00;100170.59;4843156;28;20127;-81
2021/05/07 02:59:56;;;;;;;8.48;2.10;;;-0.60;99.90;;;-2.48;100.00;100165.47;4843954;28;20084;-80
2021/05/07 03:02:19;;;;;;;8.50;2.13;;;-0.70;99.90;;;-2.53;100.00;100165.50;4846295;28;20088;-81
2021/05/07 03:04:42;;;;;;;7.63;2.55;;;-0.70;99.90;;;-2.54;100.00;100161.19;4845749;28;20096;-80
2021/05/07 03:07:05;;;;;;;5.75;2.58;;;1.00;99.90;;;-2.39;100.00;100167.19;4843981;28;20091;-80
2021/05/07 03:09:28;;;;;;;5.72;2.95;;;-0.40;99.90;;;-2.15;100.00;100167.09;4843509;28;20096;-75
2021/05/07 03:11:51;;;;;;;10.63;3.65;;;-0.20;99.90;;;-2.03;100.00;100173.94;4845976;28;20085;-81
2021/05/07 03:14:13;;;;;;;7.82;2.97;;;-0.10;99.90;;;-1.95;100.00;100176.47;4844302;28;20096;-80
2021/05/07 03:16:36;;;;;;;19.42;3.80;;;-0.10;99.90;;;-1.91;100.00;100178.16;4845670;28;20598;-79
2021/05/07 03:19:00;;;;;;;7.15;3.25;;;0.10;99.90;;;-1.73;100.00;100185.84;4845359;28;21414;-81
2021/05/07 03:21:23;;;;;;;8.63;2.85;;;0.10;99.90;;;-1.70;100.00;100192.72;4843962;28;20101;-80
2021/05/07 03:23:46;;;;;;;8.50;3.25;;;0.10;99.90;;;-1.75;100.00;100189.28;4845298;28;20096;-81
2021/05/07 03:26:10;;;;;;;4.72;2.67;;;0.00;99.90;;;-1.82;100.00;100185.88;4844860;28;20528;-81
2021/05/07 03:28:33;;;;;;;13.65;3.05;;;-0.10;99.90;;;-1.93;100.00;100175.59;4845400;28;20084;-80
2021/05/07 03:30:56;;;;;;;6.72;2.67;;;-0.20;99.90;;;-2.02;100.00;100187.69;4843571;28;20143;-76
2021/05/07 03:33:19;;;;;;;5.43;3.10;;;-0.20;99.90;;;-2.04;100.00;100189.41;4843614;28;20532;-80
2021/05/07 03:35:43;;;;;;;9.23;3.00;;;-0.20;99.90;;;-2.03;100.00;100189.41;4845521;28;20452;-79
2021/05/07 03:38:06;;;;;;;11.23;3.78;;;-0.30;99.90;;;-2.05;100.00;100198.88;4844057;28;20085;-81
2021/05/07 03:40:29;;;;;;;7.43;3.33;;;-0.30;99.90;;;-2.06;100.00;100189.41;4840904;28;20093;-80
2021/05/07 03:42:52;;;;;;;7.32;2.83;;;-0.30;99.90;;;-2.04;100.00;100189.41;4845682;28;20093;-76
2021/05/07 03:45:16;;;;;;;8.90;2.72;;;-0.20;99.90;;;-1.99;100.00;100196.25;4843726;28;20081;-81
2021/05/07 03:47:40;;;;;;;7.15;3.15;;;-0.20;99.90;;;-1.91;100.00;100193.66;4845811;28;20146;-81
2021/05/07 03:50:03;;;;;;;8.88;2.75;;;-0.10;99.90;;;-1.89;100.00;100199.66;4842893;28;20092;-81
2021/05/07 03:52:27;;;;;;;9.95;3.53;;;0.00;99.90;;;-1.89;100.00;100204.84;4843433;28;20493;-82
2021/05/07 03:54:50;;;;;;;6.13;2.67;;;0.00;99.90;;;-1.90;100.00;100209.13;4845200;28;20106;-81
2021/05/07 03:57:13;;;;;;;5.70;3.30;;;-0.10;99.90;;;-1.93;100.00;100211.72;4842871;28;20495;-82
2021/05/07 03:59:36;;;;;;;5.07;2.50;;;-0.10;99.90;;;-1.92;100.00;100207.44;4844721;28;20131;-82
2021/05/07 04:01:59;;;;;;;3.33;1.98;;;-0.10;99.90;;;-1.97;100.00;100206.56;4846715;28;20084;-78
2021/05/07 04:04:22;;;;;;;6.82;2.35;;;-0.10;99.90;;;-1.96;100.00;100209.16;4844198;28;20107;-81
2021/05/07 04:06:45;;;;;;;3.55;1.80;;;-0.10;99.90;;;-1.91;100.00;100210.00;4842680;28;20088;-81
2021/05/07 04:09:12;;;;;;;2.15;1.55;;;0.10;99.90;;;-1.67;100.00;100215.91;4846399;28;20130;-81
2021/05/07 04:11:39;;;;;;;10.40;1.77;;;0.80;99.90;;;-0.72;100.00;100197.16;4843879;28;20577;-81
2021/05/07 04:14:02;;;;;;;3.08;1.80;;;1.90;99.90;;;0.40;100.00;100202.84;4843146;28;20431;-80
2021/05/07 04:16:24;;;;;;;9.30;2.42;;;3.10;99.90;;;1.58;91.66;100206.19;4842927;28;20536;-81
2021/05/07 04:18:48;;;;;;;6.45;2.17;;;4.30;99.90;;;2.89;88.02;100193.06;4843335;28;20080;-77
2021/05/07 04:21:11;;;;;;;10.45;2.50;;;5.80;99.90;;;4.24;84.65;100199.97;4841306;28;20097;-76
2021/05/07 04:23:34;;;;;;;6.40;1.80;;;7.00;99.90;;;5.35;79.32;100192.13;4844658;28;20078;-81
2021/05/07 04:25:58;;;;;;;6.93;2.05;;;8.00;99.90;;;6.20;73.90;100194.44;4843540;28;20083;-79
2021/05/07 04:28:22;;;;;;;1.42;1.30;;;8.80;99.90;;;6.96;66.25;100195.03;4844104;28;20118;-83
2021/05/07 04:30:45;;;;;;;4.28;0.90;;;9.30;99.90;;;7.57;63.57;100189.84;4842539;28;20101;-83
2021/05/07 04:33:09;;;;;;;3.47;1.48;;;9.90;99.90;;;8.16;61.64;100190.78;4843620;28;20086;-82
2021/05/07 04:35:32;;;;;;;8.07;1.20;;;10.50;99.90;;;8.98;59.93;100197.50;4847914;28;20038;-82
2021/05/07 04:37:54;;;;;;;2.22;1.30;;;11.20;99.90;;;9.79;57.72;100201.31;4844704;28;20050;-83
2021/05/07 04:40:18;;;;;;;2.70;1.20;;;11.70;99.90;;;10.06;56.80;100198.16;4844586;28;20064;-82
2021/05/07 04:42:41;;;;;;;5.55;1.30;;;12.40;99.90;;;10.53;55.56;100201.84;4841618;28;20061;-83
2021/05/07 04:45:08;;;;;;;3.83;1.40;;;12.70;99.90;;;10.77;53.61;100192.59;4843768;28;20045;-83
2021/05/07 04:47:31;;;;;;;4.45;1.60;;;12.60;99.90;;;10.99;53.08;100204.53;4842707;28;20042;-83
2021/05/07 04:49:54;;;;;;;5.93;1.85;;;12.60;99.90;;;11.37;52.36;100194.44;4843516;28;20054;-84
2021/05/07 04:52:17;;;;;;;4.85;1.67;;;12.60;99.90;;;11.41;51.61;100189.84;4841694;28;20072;-83
2021/05/07 04:54:39;;;;;;;5.18;1.80;;;12.20;99.90;;;10.67;52.97;100204.59;4843006;28;20108;-83
2021/05/07 04:57:03;;;;;;;7.82;2.10;;;11.60;99.90;;;9.80;56.08;100213.53;4844155;28;20053;-80
2021/05/07 04:59:27;;;;;;;5.30;1.85;;;10.80;99.90;;;9.16;59.08;100212.38;4845736;28;20594;-83
2021/05/07 05:01:50;;;;;;;4.07;1.48;;;9.80;99.90;;;8.08;62.53;100223.47;4842529;28;20438;-82
2021/05/07 05:04:13;;;;;;;6.93;1.60;;;8.80;99.90;;;7.27;65.47;100230.44;4842606;28;20038;-82
2021/05/07 05:06:35;;;;;;;4.57;1.55;;;8.40;99.90;;;7.16;69.28;100229.09;4841633;28;20045;-79
2021/05/07 05:08:58;;;;;;;3.72;1.80;;;9.30;99.90;;;8.62;66.09;100221.97;4843256;28;20539;-82
2021/05/07 05:11:21;;;;;;;5.68;2.45;;;11.00;99.90;;;10.02;60.96;100218.53;4845339;28;20042;-79
2021/05/07 05:13:44;;;;;;;4.95;2.00;;;11.90;99.90;;;11.31;56.25;100220.31;4841427;28;20034;-79
2021/05/07 05:16:08;;;;;;;7.18;1.80;;;13.00;99.90;;;12.71;51.32;100215.38;4841738;28;20042;-85
2021/05/07 05:18:33;;;;;;;4.32;1.40;;;13.20;99.90;;;13.03;50.38;100217.75;4840852;28;20362;-83
2021/05/07 05:20:59;;;;;;;5.47;1.38;;;14.50;99.90;;;14.17;49.83;100229.53;4845797;28;20050;-83
2021/05/07 05:23:22;;;;;;;5.90;2.50;;;15.70;99.90;;;14.92;47.35;100224.22;4844561;28;20399;-83
2021/05/07 05:25:45;;;;;;;6.60;1.63;;;16.40;99.90;;;15.72;45.63;100223.63;4845520;28;20112;-85
2021/05/07 05:28:07;;;;;;;9.75;2.00;;;15.70;99.90;;;15.50;43.95;100226.16;4840320;28;20046;-83
2021/05/07 05:30:31;;;;;;;6.47;1.75;;;14.30;99.90;;;13.64;47.58;100236.69;4841308;28;20042;-84
2021/05/07 05:32:55;;;;;;;11.38;1.92;;;13.00;99.90;;;13.05;50.14;100243.13;4844852;28;20034;-85
2021/05/07 05:35:18;;;;;;;6.30;1.50;;;13.30;99.90;;;13.81;50.04;100246.13;4844449;28;20116;-83
2021/05/07 05:37:40;;;;;;;8.55;1.52;;;13.80;99.90;;;13.77;50.97;100247.28;4843843;28;20076;-84
2021/05/07 05:40:04;;;;;;;6.53;1.48;;;13.80;99.90;;;11.71;52.35;100250.50;4843236;28;20137;-82
2021/05/07 05:42:28;;;;;;;6.85;1.65;;;11.30;99.90;;;8.75;63.36;100265.09;4841211;28;20053;-82
2021/05/07 05:44:51;;;;;;;8.95;1.75;;;9.40;99.90;;;7.18;69.25;100263.91;4841956;28;20053;-78
2021/05/07 05:47:13;;;;;;;7.55;1.40;;;8.40;99.90;;;6.64;74.23;100269.53;4845972;28;20065;-82
2021/05/07 05:49:37;;;;;;;11.00;1.80;;;7.90;99.90;;;6.25;75.10;100268.31;4844172;28;20507;-82
2021/05/07 05:52:00;;;;;;;6.38;1.70;;;7.70;99.90;;;6.13;77.46;100276.59;4843757;28;20078;-82
2021/05/07 05:54:23;;;;;;;12.55;1.65;;;7.60;99.90;;;6.15;77.92;100265.22;4840113;28;20085;-82
2021/05/07 05:56:47;;;;;;;8.15;1.42;;;7.40;99.90;;;5.78;78.37;100264.72;4843727;28;20441;-78
2021/05/07 05:59:10;;;;;;;13.88;1.83;;;7.20;99.90;;;5.73;79.67;100270.13;4846495;28;20524;-82
2021/05/07 06:01:33;;;;;;;5.45;1.45;;;7.20;99.90;;;5.58;80.11;100273.25;4844770;28;20137;-83
2021/05/07 06:03:55;;;;;;;10.98;1.75;;;7.10;99.90;;;5.82;80.63;100284.63;4842162;28;20415;-84
2021/05/07 06:06:19;;;;;;;5.47;1.83;;;7.20;99.90;;;5.89;78.12;100276.50;4842887;28;20413;-83
2021/05/07 06:08:42;;;;;;;6.85;1.73;;;;;;;5.70;79.62;100275.44;4840225;28;20090;-78
2021/05/07 06:11:06;;;;;;;9.35;1.52;;;7.20;99.90;;;6.03;78.20;100289.16;4843994;28;20136;-83
2021/05/07 06:13:29;;;;;;;3.95;1.30;;;7.50;99.90;;;6.43;78.59;100279.88;4847281;28;20087;-85
2021/05/07 06:15:52;;;;;;;8.75;1.50;;;7.80;99.90;;;6.81;77.40;100287.22;4845658;28;20083;-83
2021/05/07 06:18:15;;;;;;;9.23;1.70;;;8.10;99.90;;;7.02;76.43;100286.41;4845851;28;20082;-76
2021/05/07 06:20:38;;;;;;;10.10;1.52;;;8.30;99.90;;;7.28;75.46;100282.75;4846909;28;20543;-82
2021/05/07 06:23:01;;;;;;;11.50;2.22;;;8.30;99.90;;;7.26;74.12;100284.56;4848981;28;20474;-82
2021/05/07 06:25:25;;;;;;;9.52;1.42;;;8.50;99.90;;;7.51;73.65;100292.28;4847521;28;20517;-84
2021/05/07 06:27:49;;;;;;;4.40;1.30;;;8.70;99.90;;;7.69;71.45;100276.72;4844735;28;20141;-83
2021/05/07 06:30:15;;;;;;;9.68;2.03;;;8.90;99.90;;;7.55;72.28;100285.16;4845221;28;20078;-82
2021/05/07 06:32:38;;;;;;;5.75;1.52;;;8.90;99.90;;;8.08;70.30;100281.16;4847057;28;20079;-82
2021/05/07 06:35:01;;;;;;;7.07;1.65;;;9.00;99.90;;;7.58;69.52;100285.00;4846501;28;20576;-82
2021/05/07 06:37:23;;;;;;;6.20;1.65;;;8.70;99.90;;;7.30;71.24;100285.28;4848477;28;20082;-82
2021/05/07 06:39:47;;;;;;;12.13;1.80;;;8.50;99.90;;;7.31;72.02;100292.25;4842330;28;20133;-81
2021/05/07 06:42:10;;;;;;;13.38;1.83;;;8.50;99.90;;;7.44;72.49;100292.59;4845297;28;20077;-78
2021/05/07 06:44:33;;;;;;;9.45;1.50;;;8.70;99.90;;;7.88;72.06;100293.38;4846852;28;20086;-83
2021/05/07 06:46:56;;;;;;;9.50;1.65;;;9.00;99.90;;;8.18;68.27;100285.94;4847891;28;20079;-82
2021/05/07 06:49:19;;;;;;;10.35;1.80;;;8.90;99.90;;;7.92;70.72;100287.06;4847898;28;20083;-82
2021/05/07 06:51:42;;;;;;;2.17;0.88;;;9.20;99.90;;;8.30;68.13;100287.19;4848864;28;20085;-82
2021/05/07 06:54:08;;;;;;;6.57;1.08;;;9.10;99.90;;;8.00;68.92;100292.00;4843560;28;20078;-82
2021/05/07 06:56:33;;;;;;;8.27;1.48;;;8.90;99.90;;;8.01;69.44;100288.44;4845037;28;20502;-82
2021/05/07 06:58:56;;;;;;;7.47;1.48;;;9.10;99.90;;;7.85;68.10;100288.25;4848277;28;20090;-81
2021/05/07 07:01:18;;;;;;;9.70;1.55;;;9.10;99.90;;;7.88;69.23;100297.75;4847509;28;20446;-82
2021/05/07 07:03:42;;;;;;;6.35;1.08;;;9.00;99.90;;;7.51;67.96;100299.28;4844294;28;20091;-82
2021/05/07 07:06:05;;;;;;;6.60;1.10;;;8.60;99.90;;;7.10;71.24;100294.78;4845293;28;20101;-79
2021/05/07 07:08:28;;;;;;;5.90;1.25;;;8.70;99.90;;;7.81;71.45;100291.94;4848951;28;23145;-81
2021/05/07 07:10:51;;;;;;;6.28;1.08;;;;;;;8.50;67.12;100293.38;4848020;28;20082;-84
2021/05/07 07:13:15;;;;;;;6.00;1.25;;;9.50;99.90;;;8.93;65.47;100294.88;4844561;28;20131;-83
2021/05/07 07:15:38;;;;;;;7.68;1.38;;;;;;;8.89;65.05;100298.56;4844374;28;20099;-85
2021/05/07 07:18:01;;;;;;;8.88;1.33;;;9.70;99.90;;;8.58;66.91;100296.50;4845146;28;20081;-84
2021/05/07 07:20:24;;;;;;;6.05;1.50;;;9.50;99.90;;;8.28;67.62;100304.78;4847972;28;20078;-86
2021/05/07 07:22:46;;;;;;;3.42;1.08;;;9.60;99.90;;;8.60;64.38;100298.13;4845615;28;20077;-83
2021/05/07 07:25:11;;;;;;;9.43;0.93;;;9.70;99.90;;;8.39;62.46;100302.53;4843127;28;20081;-83
2021/05/07 07:27:34;;;;;;;4.80;1.03;;;9.50;99.90;;;8.52;64.24;100297.63;4844458;28;20082;-86
2021/05/07 07:29:58;;;;;;;10.98;1.10;;;9.50;99.90;;;8.34;63.85;100301.03;4844092;28;20089;-82
2021/05/07 07:32:21;;;;;;;7.40;0.88;;;9.70;99.90;;;8.93;62.27;100299.28;4847370;28;20102;-81
2021/05/07 07:34:44;;;;;;;4.88;0.82;;;9.50;99.90;;;9.12;60.17;100305.38;4844815;28;20518;-87
2021/05/07 07:37:06;;;;;;;6.82;1.00;;;10.20;99.90;;;10.17;59.72;100305.47;4845877;28;20089;-83
2021/05/07 07:39:29;;;;;;;3.72;0.98;;;10.70;99.90;;;10.67;56.07;100304.63;4845008;28;20089;-84
2021/05/07 07:41:52;;;;;;;5.38;1.02;;;11.40;99.90;;;10.92;52.07;100308.56;4845101;28;20424;-82
2021/05/07 07:44:16;;;;;;;8.80;2.03;;;11.40;99.90;;;10.67;55.12;100310.75;4845834;28;20068;-80
2021/05/07 07:46:39;;;;;;;9.45;1.10;;;11.40;99.90;;;10.80;53.42;100303.03;4845650;28;20418;-85
2021/05/07 07:49:02;;;;;;;6.25;1.38;;;11.00;99.90;;;10.19;58.23;100314.97;4845370;28;20093;-83
2021/05/07 07:51:29;;;;;;;8.60;1.35;;;11.00;99.90;;;10.52;56.26;100318.59;4844388;28;20158;-82
2021/05/07 07:53:52;;;;;;;9.02;1.63;;;11.10;99.90;;;10.46;57.87;100325.91;4845923;28;20171;-83
2021/05/07 07:56:15;;;;;;;4.93;1.08;;;10.90;99.90;;;10.08;58.24;100325.19;4845911;28;20079;-86
2021/05/07 07:58:38;;;;;;;6.68;1.42;;;10.20;99.90;;;9.53;59.38;100322.72;4844820;28;20085;-86
2021/05/07 08:01:02;;;;;;;5.15;1.33;;;9.70;99.90;;;8.82;60.87;100334.75;4844303;28;20070;-85
2021/05/07 08:03:25;;;;;;;7.63;1.30;;;9.40;99.90;;;8.78;62.68;100332.34;4845605;28;20118;-84
2021/05/07 08:05:49;;;;;;;7.30;1.30;;;9.30;99.90;;;8.81;61.09;100333.06;4842181;28;20409;-87
2021/05/07 08:08:13;;;;;;;6.38;1.08;;;9.20;99.90;;;8.85;58.95;100340.78;4845369;28;20178;-86
2021/05/07 08:10:36;;;;;;;5.55;1.35;;;;;;;8.66;60.81;100338.13;4843722;28;20074;-84
2021/05/07 08:13:00;;;;;;;5.63;1.48;;;9.30;99.90;;;9.24;59.12;100341.59;4842576;28;20074;-87
2021/05/07 08:15:22;;;;;;;8.07;1.33;;;10.00;99.90;;;10.42;56.00;100337.50;4844836;28;20398;-81
2021/05/07 08:17:47;;;;;;;2.75;0.80;;;10.90;99.90;;;11.40;53.57;100327.84;4845186;28;20147;-84
2021/05/07 08:20:15;;;;;;;3.77;1.10;;;11.30;99.90;;;12.17;50.04;100326.09;4844506;28;20161;-85
2021/05/07 08:22:37;;;;;;;7.20;1.27;;;11.40;99.90;;;12.25;51.56;100329.13;4844332;28;20082;-84
2021/05/07 08:25:00;;;;;;;7.63;1.20;;;11.80;99.90;;;12.21;48.50;100330.25;4845443;28;20080;-80
2021/05/07 08:27:24;;;;;;;8.20;1.17;;;11.60;99.90;;;12.25;51.01;100335.25;4842061;28;20488;-86
2021/05/07 08:29:48;;;;;;;4.13;1.00;;;11.80;99.90;;;12.30;51.61;100337.63;4845927;28;20042;-83
2021/05/07 08:32:11;;;;;;;5.50;1.63;;;12.10;99.90;;;12.24;50.57;100337.97;4846097;28;20048;-84
2021/05/07 08:34:34;;;;;;;4.60;1.27;;;11.90;99.90;;;11.93;51.28;100342.44;4843216;28;20047;-86
2021/05/07 08:36:58;;;;;;;3.65;1.00;;;12.00;99.90;;;12.14;50.82;100331.53;4845189;28;20053;-82
2021/05/07 08:39:21;;;;;;;5.78;0.75;;;12.30;99.90;;;12.35;49.84;100342.63;4844528;28;20069;-86
2021/05/07 08:41:45;;;;;;;4.95;1.10;;;11.90;99.90;;;12.73;50.39;100342.94;4844077;28;20057;-82
2021/05/07 08:44:08;;;;;;;4.30;0.90;;;12.90;99.90;;;13.24;47.39;100345.03;4846659;28;20064;-85
2021/05/07 08:46:31;;;;;;;5.50;1.05;;;12.30;99.90;;;12.68;49.37;100342.38;4844566;28;20042;-84
2021/05/07 08:48:54;;;;;;;4.50;1.13;;;12.70;99.90;;;12.92;47.56;100348.78;4844163;28;20079;-80
2021/05/07 08:51:19;;;;;;;9.13;1.30;;;12.40;99.90;;;12.25;50.26;100356.38;4844011;28;20437;-85
2021/05/07 08:53:43;;;;;;;5.70;1.13;;;12.30;99.90;;;12.50;49.86;100350.47;4845231;28;20473;-84
2021/05/07 08:56:08;;;;;;;4.80;0.98;;;12.10;99.90;;;11.89;50.07;100356.72;4848057;28;20469;-81
2021/05/07 08:58:31;;;;;;;5.82;1.05;;;11.10;99.90;;;10.57;53.11;100366.59;4846507;28;20115;-85
2021/05/07 09:01:08;;;;;;;5.20;0.90;;;11.20;99.90;;;10.70;51.80;100375.56;4825692;28;20050;-80
2021/05/07 09:03:48;;;;;;;5.95;0.90;;;11.60;99.90;;;11.19;51.45;100372.94;4781210;28;20450;-83
2021/05/07 09:06:27;;;;;;;7.30;1.08;;;11.70;99.90;;;10.86;51.10;100373.81;4772781;28;20408;-86
2021/05/07 09:09:35;;;;;;;2.72;1.20;;;11.60;99.90;;;10.82;52.50;100381.94;4770895;28;20127;-83
2021/05/07 09:12:03;;;;;;;5.85;0.90;;;10.80;99.90;;;9.70;53.02;100374.44;4776107;28;24944;-84
2021/05/07 09:15:07;;;;;;;3.90;1.38;;;10.50;99.90;;;9.87;53.04;100379.75;4775646;28;20073;-82
2021/05/07 09:18:18;;;;;;;8.20;0.60;;;10.70;99.90;;;9.57;54.53;100389.97;4773218;28;20080;-85
2021/05/07 09:20:47;;;;;;;5.70;0.95;;;10.40;99.90;;;9.56;54.23;100388.25;4789968;28;20085;-82
2021/05/07 09:37:35;;;;;;;4.75;1.30;;;10.70;99.90;;;10.32;51.37;100375.75;4758112;28;20080;-84
2021/05/07 09:40:37;;;;;;;5.63;1.10;;;10.70;99.90;;;9.58;54.13;100387.25;4767899;28;20656;-84
2021/05/07 09:43:13;;;;;;;6.05;1.70;;;11.20;99.90;;;10.83;49.73;100387.13;4784961;28;20160;-82
2021/05/07 09:49:49;;;;;;;5.93;0.88;;;12.30;99.90;;;12.07;51.95;100376.78;4778000;28;20147;-81
2021/05/07 10:27:05;;;;;;;2.78;1.20;;;10.00;99.90;;;8.93;57.53;100423.53;4824444;27;24513;-84
2021/05/07 10:29:49;;;;;;;5.55;0.90;;;;;;;8.93;57.66;100425.31;4823959;28;20081;-88
2021/05/07 10:32:16;;;;;;;1.33;0.90;;;10.20;99.90;;;9.71;56.42;100415.59;4842446;28;20075;-87
2021/05/07 10:34:43;;;;;;;4.32;1.02;;;11.60;99.90;;;11.55;53.90;100416.63;4855975;28;20594;-86
2021/05/07 10:37:19;;;;;;;2.90;0.60;;;12.30;99.90;;;12.09;50.14;100403.94;4836897;28;20091;-84
2021/05/07 10:40:35;;;;;;;7.25;1.38;;;12.40;99.90;;;10.76;49.08;100414.75;4791710;28;20067;-82
2021/05/07 10:43:17;;;;;;;3.00;0.75;;;11.80;99.90;;;10.67;51.95;100420.50;4830554;28;20068;-81
2021/05/07 10:45:47;;;;;;;2.03;0.60;;;12.00;99.90;;;10.86;52.05;100421.25;4828422;28;20085;-83
2021/05/07 10:48:24;;;;;;;3.78;0.50;;;11.40;99.90;;;9.71;53.12;100429.59;4827899;28;20155;-80
2021/05/07 10:50:53;;;;;;;3.30;0.77;;;11.50;99.90;;;10.92;53.49;100424.47;4828623;28;23189;-84
2021/05/07 10:53:30;;;;;;;3.63;0.65;;;12.20;99.90;;;11.51;51.14;100428.28;4854702;28;20158;-83
2021/05/07 10:56:03;;;;;;;4.82;0.80;;;12.80;99.90;;;11.77;47.92;100426.84;4861239;28;20053;-81
2021/05/07 10:58:38;;;;;;;6.35;0.60;;;13.00;99.90;;;12.45;48.19;100420.34;4850390;28;20046;-83
2021/05/07 11:01:15;;;;;;;3.20;0.80;;;13.10;99.90;;;12.05;46.90;100422.66;4877505;28;20072;-83